Time;durP1;ratioP1;P1;durP2;ratioP2;P2;SDS_P1;SDS_P2;PMS_P1;PMS_P2;Temp;Humidity;BMP_temperature;BMP_pressure;BME280_temperature;BME280_humidity;BME280_pressure;Samples;Min_cycle;Max_cycle;Signal;HPM_P1;HPM_P2
2023/02/22 00:02:43;;;;;;;41.00;17.20;;;;;;;5.57;64.58;100409.03;112119;1244;23580;-76
2023/02/22 00:06:11;;;;;;;;;;;;;;;;;;;;;
2023/02/22 00:09:14;;;;;;;37.90;16.90;;;;;;;5.33;64.60;100409.41;111690;1249;21983;-77
2023/02/22 00:12:25;;;;;;;35.00;16.50;;;;;;;5.25;64.80;100412.13;111437;1249;22719;-76
2023/02/22 00:15:27;;;;;;;;;;;;;;;;;;;;;
2023/02/22 00:18:13;;;;;;;36.30;15.60;;;;;;;5.15;64.97;100417.45;110874;1254;22631;-76
2023/02/22 00:21:43;;;;;;;30.00;14.00;;;;;;;5.06;65.24;100422.93;111209;1254;22028;-76
2023/02/22 00:24:35;;;;;;;39.70;14.30;;;;;;;4.98;65.16;100425.97;111168;1254;23029;-75
2023/02/22 00:27:22;;;;;;;38.10;14.80;;;;;;;4.91;65.26;100427.62;111294;1249;21988;-76
2023/02/22 00:30:14;;;;;;;36.00;18.70;;;;;;;4.82;65.21;100426.33;111661;1249;23680;-77
2023/02/22 00:33:17;;;;;;;36.60;18.80;;;;;;;4.73;65.30;100428.18;111982;1244;22502;-77
2023/02/22 00:37:04;;;;;;;34.30;14.60;;;;;;;4.65;65.49;100428.30;112388;1238;22100;-76
2023/02/22 00:41:00;;;;;;;34.40;15.30;;;;;;;4.55;65.57;100431.16;113068;1238;23682;-75
2023/02/22 00:44:16;;;;;;;32.00;14.60;;;;;;;4.43;65.80;100435.61;111598;1251;23021;-76
2023/02/22 00:47:07;;;;;;;34.40;15.20;;;;;;;4.36;65.63;100435.52;111380;1251;22126;-76
2023/02/22 00:50:06;;;;;;;39.60;17.10;;;;;;;4.30;65.81;100436.10;111596;1251;21960;-76
2023/02/22 00:52:58;;;;;;;;;;;;;;;;;;;;;
2023/02/22 00:56:24;;;;;;;42.40;18.40;;;;;;;4.18;66.22;100440.86;111396;1251;23645;-75
2023/02/22 00:59:11;;;;;;;41.60;16.80;;;;;;;4.12;66.34;100446.97;111316;1251;21978;-75
2023/02/22 01:02:00;;;;;;;42.90;17.70;;;;;;;4.06;66.37;100449.44;111588;1251;23735;-76
2023/02/22 01:04:51;;;;;;;43.90;18.20;;;;;;;3.98;66.44;100452.95;111369;1251;22718;-76
2023/02/22 01:07:54;;;;;;;;;;;;;;;;;;;;;
2023/02/22 01:11:14;;;;;;;41.30;16.30;;;;;;;3.87;66.86;100453.04;111067;1255;22011;-75
2023/02/22 01:14:08;;;;;;;54.00;21.80;;;;;;;3.81;67.00;100454.98;111067;1254;22025;-75
2023/02/22 01:16:57;;;;;;;52.80;22.10;;;;;;;3.77;67.04;100458.29;110808;1255;22720;-76
2023/02/22 01:19:52;;;;;;;48.60;19.00;;;;;;;3.71;67.03;100459.72;111169;1250;22371;-77
2023/02/22 01:22:58;;;;;;;60.10;24.20;;;;;;;3.67;67.31;100460.95;111285;1250;23523;-75
2023/02/22 01:25:43;;;;;;;67.30;30.60;;;;;;;3.64;67.41;100457.53;111779;1244;21967;-76
2023/02/22 01:29:17;;;;;;;71.80;33.80;;;;;;;3.59;67.48;100459.46;111996;1244;21978;-75
2023/02/22 01:32:16;;;;;;;;;;;;;;;;;;;;;
2023/02/22 01:35:22;;;;;;;85.00;33.40;;;;;;;3.46;67.56;100460.06;111702;1249;21952;-76
2023/02/22 01:38:02;;;;;;;65.90;30.00;;;;;;;3.39;67.52;100458.23;111651;1249;22083;-77
2023/02/22 01:41:11;;;;;;;75.30;34.20;;;;;;;3.32;67.36;100456.04;111571;1244;21912;-77
2023/02/22 01:44:21;;;;;;;84.80;37.30;;;;;;;3.24;67.50;100463.48;111341;1253;21981;-76
2023/02/22 01:47:25;;;;;;;88.00;38.30;;;;;;;3.18;67.67;100463.68;111638;1247;23618;-77
2023/02/22 01:50:41;;;;;;;;;;;;;;;;;;;;;
2023/02/22 01:54:16;;;;;;;67.40;29.90;;;;;;;3.06;68.06;100461.34;111738;1248;21957;-77
2023/02/22 01:57:28;;;;;;;70.10;34.30;;;;;;;3.03;68.19;100459.30;111888;1248;21989;-77
2023/02/22 02:00:15;;;;;;;70.70;31.20;;;;;;;2.98;68.13;100462.93;111286;1254;23594;-76
2023/02/22 02:03:32;;;;;;;;;;;;;;;;;;;;;
2023/02/22 02:06:35;;;;;;;;;;;;;;;;;;;;;
2023/02/22 02:10:06;;;;;;;78.60;35.90;;;;;;;2.83;68.24;100465.06;110764;1258;21971;-75
2023/02/22 02:13:01;;;;;;;78.80;35.20;;;;;;;2.78;68.47;100464.39;110845;1258;22509;-76
2023/02/22 02:16:03;;;;;;;79.40;34.70;;;;;;;2.72;68.67;100464.59;110829;1258;21966;-76
2023/02/22 02:18:53;;;;;;;86.10;33.80;;;;;;;2.70;68.66;100466.15;111049;1254;23037;-76
2023/02/22 02:22:28;;;;;;;75.70;34.40;;;;;;;2.70;68.82;100470.27;112293;1239;21928;-76
2023/02/22 02:26:32;;;;;;;83.30;32.60;;;;;;;2.66;68.91;100472.69;112933;1239;21960;-76
2023/02/22 02:29:37;;;;;;;81.20;32.90;;;;;;;2.62;68.94;100465.15;113541;1233;22001;-76
2023/02/22 02:32:51;;;;;;;98.80;42.40;;;;;;;2.59;69.06;100466.01;113638;1233;22405;-76
2023/02/22 02:35:48;;;;;;;111.80;45.10;;;;;;;2.57;69.15;100465.85;113554;1231;21969;-75
2023/02/22 02:38:53;;;;;;;93.70;39.50;;;;;;;2.57;69.33;100463.09;112770;1238;23041;-75
2023/02/22 02:41:33;;;;;;;108.30;43.70;;;;;;;2.58;69.37;100461.89;112705;1239;23215;-75
2023/02/22 02:44:11;;;;;;;110.20;47.20;;;;;;;2.58;69.39;100461.70;112963;1239;23040;-75
2023/02/22 02:46:58;;;;;;;112.70;43.70;;;;;;;2.58;69.38;100462.75;112733;1239;22022;-75
2023/02/22 02:49:46;;;;;;;92.10;40.20;;;;;;;2.59;69.54;100464.29;112865;1239;24303;-75
2023/02/22 02:52:17;;;;;;;94.70;41.10;;;;;;;2.61;69.80;100465.15;112004;1245;21972;-75
2023/02/22 02:54:50;;;;;;;106.20;43.10;;;;;;;2.63;69.90;100462.05;111966;1245;21979;-76
2023/02/22 02:57:35;;;;;;;79.30;36.80;;;;;;;2.64;69.87;100462.39;112778;1239;22698;-75
2023/02/22 03:00:47;;;;;;;82.40;36.90;;;;;;;2.64;69.91;100466.67;112848;1239;24882;-75
2023/02/22 03:04:10;;;;;;;78.50;38.60;;;;;;;2.63;70.00;100466.34;112822;1239;21952;-75
2023/02/22 03:07:23;;;;;;;91.90;39.20;;;;;;;2.62;70.07;100467.89;112222;1244;21970;-75
2023/02/22 03:10:54;;;;;;;90.00;40.20;;;;;;;2.61;70.07;100466.01;112349;1238;21905;-76
2023/02/22 03:13:51;;;;;;;86.90;38.00;;;;;;;2.56;69.97;100466.70;111672;1247;21952;-76
2023/02/22 03:16:28;;;;;;;90.70;39.60;;;;;;;2.51;69.94;100467.41;111244;1254;22979;-76
2023/02/22 03:19:53;;;;;;;;;;;;;;;;;;;;;
2023/02/22 03:23:12;;;;;;;90.40;35.50;;;;;;;2.44;70.12;100465.02;111204;1254;23698;-76
2023/02/22 03:26:39;;;;;;;71.10;32.10;;;;;;;2.40;70.07;100463.31;111605;1248;23005;-76
2023/02/22 03:29:46;;;;;;;;;;;;;;;;;;;;;
2023/02/22 03:33:07;;;;;;;80.40;33.30;;;;;;;2.33;70.35;100472.26;111352;1251;21984;-76
2023/02/22 03:36:59;;;;;;;77.10;35.40;;;;;;;2.30;70.17;100474.84;111421;1251;21983;-78
2023/02/22 03:40:26;;;;;;;68.30;33.00;;;;;;;2.28;70.32;100478.11;111511;1251;21981;-77
2023/02/22 03:43:58;;;;;;;76.80;34.50;;;;;;;2.31;70.59;100481.37;111562;1251;24315;-76
2023/02/22 03:47:31;;;;;;;65.40;29.70;;;;;;;2.34;70.58;100484.45;110907;1257;21978;-77
2023/02/22 03:50:59;;;;;;;66.80;31.90;;;;;;;2.39;70.57;100483.77;111046;1255;24341;-75
2023/02/22 03:54:25;;;;;;;;;;;;;;;;;;;;;
2023/02/22 03:57:28;;;;;;;70.00;32.50;;;;;;;2.41;70.75;100483.41;111029;1255;22022;-76
2023/02/22 04:00:30;;;;;;;59.30;31.50;;;;;;;2.42;70.76;100482.38;110625;1261;22818;-75
2023/02/22 04:03:31;;;;;;;67.40;33.10;;;;;;;2.44;70.70;100481.69;110154;1265;21999;-76
2023/02/22 04:06:56;;;;;;;74.40;37.70;;;;;;;2.45;70.75;100483.92;110709;1259;23035;-76
2023/02/22 04:10:16;;;;;;;74.30;39.90;;;;;;;2.45;70.93;100485.46;110760;1257;22983;-75
2023/02/22 04:13:06;;;;;;;70.40;38.20;;;;;;;2.44;70.87;100490.61;110287;1263;23228;-76
2023/02/22 04:15:39;;;;;;;69.70;36.30;;;;;;;2.46;70.86;100496.45;110605;1260;23724;-77
2023/02/22 04:18:13;;;;;;;74.60;37.20;;;;;;;2.47;70.90;100495.59;111113;1251;21927;-75
2023/02/22 04:20:43;;;;;;;71.50;39.60;;;;;;;2.50;70.86;100494.39;111674;1247;21968;-75
2023/02/22 04:23:33;;;;;;;76.50;39.60;;;;;;;2.52;71.07;100496.27;111799;1247;23761;-76
2023/02/22 04:26:18;;;;;;;82.50;40.90;;;;;;;2.53;71.08;100496.95;111898;1246;22617;-75
2023/02/22 04:29:37;;;;;;;75.70;40.50;;;;;;;2.55;71.09;100498.15;112099;1238;21973;-76
2023/02/22 04:32:49;;;;;;;76.70;39.60;;;;;;;2.58;71.21;100495.40;113484;1233;23058;-77
2023/02/22 04:36:30;;;;;;;;;;;;;;;;;;;;;
2023/02/22 04:40:13;;;;;;;71.20;37.60;;;;;;;2.66;71.50;100498.80;112926;1238;23800;-77
2023/02/22 04:43:47;;;;;;;66.70;32.30;;;;;;;2.70;71.52;100508.94;113053;1238;21957;-76
2023/02/22 04:46:57;;;;;;;73.20;35.80;;;;;;;2.75;71.49;100505.65;112997;1238;24399;-76
2023/02/22 04:49:46;;;;;;;79.10;34.40;;;;;;;2.79;71.50;100508.89;112816;1238;22935;-77
2023/02/22 04:52:42;;;;;;;69.90;35.80;;;;;;;2.85;71.56;100509.56;112842;1236;21979;-76
2023/02/22 04:55:34;;;;;;;64.20;33.80;;;;;;;2.90;71.49;100507.83;113457;1233;23018;-76
2023/02/22 04:59:08;;;;;;;67.20;31.60;;;;;;;2.92;71.47;100509.89;113268;1233;22328;-76
2023/02/22 05:02:13;;;;;;;56.00;27.70;;;;;;;2.94;71.45;100507.99;112986;1239;21937;-76
2023/02/22 05:05:22;;;;;;;;;;;;;;;;;;;;;
2023/02/22 05:08:08;;;;;;;50.40;26.60;;;;;;;2.97;71.46;100505.92;113119;1239;21950;-76
2023/02/22 05:11:05;;;;;;;51.30;26.30;;;;;;;2.95;71.42;100501.12;112840;1239;22948;-76
2023/02/22 05:14:12;;;;;;;;;;;;;;;;;;;;;
2023/02/22 05:17:14;;;;;;;59.30;29.20;;;;;;;2.86;71.29;100498.91;112956;1239;24966;-76
2023/02/22 05:19:58;;;;;;;54.70;27.80;;;;;;;2.85;71.33;100501.16;112983;1234;21933;-76
2023/02/22 05:23:05;;;;;;;63.50;30.90;;;;;;;2.83;71.44;100502.70;113486;1234;21953;-76
2023/02/22 05:25:52;;;;;;;;;;;;;;;;;;;;;
2023/02/22 05:29:09;;;;;;;;;;;;;;;;;;;;;
2023/02/22 05:32:06;;;;;;;66.60;32.80;;;;;;;2.69;71.29;100514.27;112912;1239;22002;-77
2023/02/22 05:35:02;;;;;;;71.30;38.30;;;;;;;2.66;71.35;100511.88;112979;1238;21998;-76
2023/02/22 05:38:45;;;;;;;77.50;40.90;;;;;;;2.61;71.34;100513.42;112170;1245;23684;-76
2023/02/22 05:41:43;;;;;;;88.50;43.30;;;;;;;2.57;71.42;100523.06;112308;1245;23687;-77
2023/02/22 05:45:23;;;;;;;86.00;42.00;;;;;;;2.54;71.60;100528.73;111643;1249;24425;-76
2023/02/22 05:48:33;;;;;;;78.80;39.70;;;;;;;2.55;71.74;100535.77;110728;1260;22133;-75
2023/02/22 05:55:14;;;;;;;68.30;36.90;;;;;;;2.64;72.31;100544.67;110144;1259;21972;-76
2023/02/22 05:58:04;;;;;;;69.70;34.70;;;;;;;2.70;72.10;100543.48;110561;1259;23674;-76
2023/02/22 06:01:32;;;;;;;81.70;35.60;;;;;;;2.72;71.94;100538.65;110392;1259;21969;-76
2023/02/22 06:04:52;;;;;;;65.70;34.60;;;;;;;2.72;72.20;100536.95;110543;1262;21988;-75
2023/02/22 06:08:35;;;;;;;;;;;;;;;;;;;;;
2023/02/22 06:11:46;;;;;;;;;;;;;;;;;;;;;
2023/02/22 06:14:49;;;;;;;;;;;;;;;;;;;;;
2023/02/22 06:18:18;;;;;;;;;;;;;;;;;;;;;
2023/02/22 06:22:15;;;;;;;54.70;27.00;;;;;;;3.00;72.55;100554.73;111561;1251;23050;-77
2023/02/22 06:25:44;;;;;;;;;;;;;;;;;;;;;
2023/02/22 06:29:39;;;;;;;;;;;;;;;;;;;;;
2023/02/22 06:33:27;;;;;;;108.60;58.20;;;;;;;3.24;72.65;100567.20;111902;1248;22060;-76
2023/02/22 06:36:54;;;;;;;106.20;55.00;;;;;;;3.31;72.64;100569.74;112312;1244;23590;-75
2023/02/22 06:39:52;;;;;;;89.40;48.60;;;;;;;3.39;72.75;100574.17;111937;1248;22046;-75
2023/02/22 06:43:24;;;;;;;;;;;;;;;;;;;;;
2023/02/22 06:46:37;;;;;;;;;;;;;;;;;;;;;
2023/02/22 06:49:26;;;;;;;69.80;34.90;;;;;;;3.72;72.98;100590.17;111702;1248;22623;-76
2023/02/22 06:52:41;;;;;;;61.50;32.10;;;;;;;3.85;72.93;100591.64;111535;1250;23021;-76
2023/02/22 06:59:28;;;;;;;;;;;;;;;;;;;;;
2023/02/22 07:02:47;;;;;;;62.20;28.70;;;;;;;4.19;72.51;100588.66;112255;1244;23603;-76
2023/02/22 07:05:50;;;;;;;47.00;25.80;;;;;;;4.34;72.74;100591.30;111541;1250;23047;-76
2023/02/22 07:09:14;;;;;;;48.50;25.20;;;;;;;4.53;72.55;100586.98;111428;1249;23056;-77
2023/02/22 07:12:38;;;;;;;45.70;26.30;;;;;;;4.71;72.54;100587.68;111278;1252;22011;-76
2023/02/22 07:16:00;;;;;;;49.20;28.70;;;;;;;4.83;71.95;100591.36;111552;1253;23109;-77
2023/02/22 07:19:40;;;;;;;50.80;31.10;;;;;;;4.87;71.44;100598.73;110835;1258;21953;-76
2023/02/22 07:22:46;;;;;;;68.00;41.70;;;;;;;4.95;71.50;100602.44;110921;1258;22216;-77
2023/02/22 07:26:14;;;;;;;63.00;38.40;;;;;;;5.12;71.46;100607.61;110490;1260;22009;-77
2023/02/22 07:29:06;;;;;;;67.50;36.70;;;;;;;5.30;71.52;100604.96;110883;1244;22131;-75
2023/02/22 07:32:19;;;;;;;56.10;33.40;;;;;;;5.51;71.39;100610.23;112153;1244;21992;-75
2023/02/22 07:35:55;;;;;;;52.80;28.60;;;;;;;5.61;70.62;100609.77;112041;1244;21952;-76
2023/02/22 07:38:31;;;;;;;43.30;23.10;;;;;;;5.68;70.19;100615.89;111391;1252;22527;-75
2023/02/22 07:41:03;;;;;;;46.40;23.60;;;;;;;5.71;69.72;100615.51;111338;1252;22001;-75
2023/02/22 07:44:24;;;;;;;;;;;;;;;;;;;;;
2023/02/22 07:48:11;;;;;;;33.10;21.60;;;;;;;5.51;68.46;100617.65;111295;1255;21978;-76
2023/02/22 07:51:49;;;;;;;42.50;24.50;;;;;;;5.38;68.23;100619.72;111458;1251;22455;-76
2023/02/22 07:54:58;;;;;;;54.70;32.60;;;;;;;5.21;68.36;100616.13;110896;1257;21973;-78
2023/02/22 07:57:38;;;;;;;47.80;30.20;;;;;;;5.10;68.18;100612.98;110748;1257;23360;-77
2023/02/22 08:00:47;;;;;;;49.30;30.90;;;;;;;5.06;68.30;100618.02;110813;1257;23035;-76
2023/02/22 08:03:38;;;;;;;45.90;26.10;;;;;;;5.11;68.79;100622.27;111029;1257;21989;-77
2023/02/22 08:06:52;;;;;;;44.20;24.00;;;;;;;5.24;68.98;100620.39;110918;1257;22076;-77
2023/02/22 08:10:09;;;;;;;53.30;26.10;;;;;;;5.51;69.58;100621.80;110821;1257;23109;-78
2023/02/22 08:12:58;;;;;;;42.10;24.50;;;;;;;5.82;69.74;100630.37;111009;1251;23053;-75
2023/02/22 08:16:04;;;;;;;45.20;24.70;;;;;;;6.08;69.24;100628.47;112519;1238;21970;-77
2023/02/22 08:19:31;;;;;;;44.60;20.50;;;;;;;6.23;68.42;100631.90;112447;1240;22184;-76
2023/02/22 08:22:16;;;;;;;34.90;17.10;;;;;;;6.18;67.25;100633.84;112775;1240;23021;-77
2023/02/22 08:25:41;;;;;;;35.70;18.60;;;;;;;6.11;67.02;100633.27;112615;1240;21985;-77
2023/02/22 08:29:17;;;;;;;;;;;;;;;;;;;;;
2023/02/22 08:33:01;;;;;;;;;;;;;;;;;;;;;
2023/02/22 08:36:10;;;;;;;44.80;20.00;;;;;;;5.98;66.75;100636.57;112479;1238;21932;-77
2023/02/22 08:39:32;;;;;;;38.10;20.10;;;;;;;5.94;66.70;100637.13;113200;1238;21937;-76
2023/02/22 08:42:54;;;;;;;;;;;;;;;;;;;;;
2023/02/22 08:47:00;;;;;;;38.40;21.00;;;;;;;6.08;67.45;100631.94;111467;1245;23031;-77
2023/02/22 08:49:54;;;;;;;54.60;30.70;;;;;;;6.32;67.26;100635.36;111350;1253;21963;-77
2023/02/22 08:52:44;;;;;;;;;;;;;;;;;;;;;
2023/02/22 08:57:10;;;;;;;;;;;;;;;;;;;;;
2023/02/22 09:01:27;;;;;;;43.50;21.20;;;;;;;6.51;65.75;100642.33;111424;1253;23150;-77
2023/02/22 09:05:10;;;;;;;41.60;23.40;;;;;;;6.44;65.45;100644.52;110392;1262;23617;-76
2023/02/22 09:09:20;;;;;;;49.30;24.70;;;;;;;6.38;65.72;100642.02;106330;1262;5491595;-76
2023/02/22 09:13:50;;;;;;;;;;;;;;;;;;;;;
2023/02/22 09:20:21;;;;;;;;;;;;;;;;;;;;;
2023/02/22 09:24:07;;;;;;;;;;;;;;;;;;;;;
2023/02/22 09:31:57;;;;;;;36.20;18.80;;;;;;;6.49;64.82;100658.28;108646;1276;21997;-79
2023/02/22 09:49:26;;;;;;;33.20;18.20;;;;;;;8.62;57.84;100643.55;106076;1265;6048897;-79
2023/02/22 09:53:51;;;;;;;34.20;15.90;;;;;;;8.07;58.22;100647.98;110972;1256;21968;-77
2023/02/22 09:58:06;;;;;;;33.50;19.60;;;;;;;7.71;59.22;100650.29;110622;1261;22000;-78
2023/02/22 10:02:05;;;;;;;;;;;;;;;;;;;;;
2023/02/22 10:05:33;;;;;;;34.50;21.00;;;;;;;7.27;59.81;100655.86;108571;1282;21997;-78
2023/02/22 10:08:38;;;;;;;;;;;;;;;;;;;;;
2023/02/22 10:12:09;;;;;;;;;;;;;;;;;;;;;
2023/02/22 10:15:16;;;;;;;36.90;21.20;;;;;;;6.84;60.97;100647.67;108601;1282;22010;-77
2023/02/22 10:18:35;;;;;;;40.00;21.70;;;;;;;6.81;61.43;100644.94;108823;1277;23763;-78
2023/02/22 10:21:52;;;;;;;35.50;20.90;;;;;;;6.96;62.18;100646.74;108923;1277;22085;-77
2023/02/22 10:24:53;;;;;;;45.10;22.60;;;;;;;7.02;61.75;100642.30;108948;1277;22068;-78
2023/02/22 10:28:29;;;;;;;44.60;23.60;;;;;;;7.29;61.58;100643.53;107971;1289;547035;-77
2023/02/22 10:32:18;;;;;;;;;;;;;;;;;;;;;
2023/02/22 10:36:10;;;;;;;;;;;;;;;;;;;;;
2023/02/22 10:39:42;;;;;;;34.20;17.90;;;;;;;7.27;61.41;100647.02;108411;1286;24327;-76
2023/02/22 10:43:33;;;;;;;;;;;;;;;;;;;;;
2023/02/22 10:46:43;;;;;;;;;;;;;;;;;;;;;
2023/02/22 10:50:00;;;;;;;34.80;15.00;;;;;;;7.33;60.42;100644.14;107770;1293;22343;-79
2023/02/22 10:52:38;;;;;;;28.90;13.70;;;;;;;7.34;60.62;100643.95;108215;1288;22002;-79
2023/02/22 10:56:29;;;;;;;30.70;16.30;;;;;;;7.40;60.57;100641.94;109011;1281;23701;-79
2023/02/22 11:00:15;;;;;;;20.40;10.60;;;;;;;7.37;60.37;100640.08;108792;1283;22003;-78
2023/02/22 11:04:08;;;;;;;24.40;12.60;;;;;;;7.24;60.03;100641.72;109112;1276;22745;-79
2023/02/22 11:08:34;;;;;;;25.30;15.10;;;;;;;7.17;60.39;100642.20;109011;1276;21993;-78
2023/02/22 11:12:38;;;;;;;31.40;14.80;;;;;;;7.24;60.70;100642.92;109451;1271;21983;-78
2023/02/22 11:15:43;;;;;;;23.90;12.20;;;;;;;7.32;60.17;100645.89;109496;1272;21992;-79
2023/02/22 11:19:19;;;;;;;28.90;12.80;;;;;;;7.38;60.30;100640.42;108917;1277;21983;-78
2023/02/22 11:23:01;;;;;;;;;;;;;;;;;;;;;
2023/02/22 11:26:42;;;;;;;21.20;11.10;;;;;;;7.46;59.61;100640.77;108824;1277;23698;-78
2023/02/22 11:30:20;;;;;;;16.30;9.70;;;;;;;7.48;59.82;100635.20;108369;1285;22008;-80
2023/02/22 11:33:47;;;;;;;;;;;;;;;;;;;;;
2023/02/22 11:36:47;;;;;;;28.50;12.70;;;;;;;7.65;59.83;100633.64;109325;1272;22009;-79
2023/02/22 11:40:22;;;;;;;29.90;13.90;;;;;;;7.71;59.42;100633.16;109439;1267;23028;-78
2023/02/22 11:43:21;;;;;;;29.50;14.70;;;;;;;7.67;59.10;100629.61;109421;1269;21977;-80
2023/02/22 11:47:10;;;;;;;;;;;;;;;;;;;;;
2023/02/22 11:54:58;;;;;;;27.30;14.50;;;;;;;7.55;58.65;100623.44;109325;1273;22887;-79
2023/02/22 11:59:03;;;;;;;32.40;14.00;;;;;;;7.48;58.73;100624.12;109334;1273;23038;-79
2023/02/22 12:08:39;;;;;;;;;;;;;;;;;;;;;
2023/02/22 12:13:06;;;;;;;;;;;;;;;;;;;;;
2023/02/22 12:16:10;;;;;;;29.10;17.20;;;;;;;7.28;59.55;100621.39;108453;1284;22339;-80
2023/02/22 12:19:22;;;;;;;;;;;;;;;;;;;;;
2023/02/22 12:22:49;;;;;;;25.60;11.40;;;;;;;7.47;59.29;100620.84;108526;1284;22630;-78
2023/02/22 12:26:18;;;;;;;23.80;10.70;;;;;;;7.55;58.89;100622.40;108046;1288;22032;-78
2023/02/22 12:29:46;;;;;;;23.50;9.60;;;;;;;7.58;58.79;100623.89;107873;1293;22220;-78
2023/02/22 12:32:41;;;;;;;27.00;11.40;;;;;;;7.61;58.44;100622.80;108396;1287;23086;-77
2023/02/22 12:35:34;;;;;;;22.80;12.80;;;;;;;7.58;58.18;100624.42;108186;1287;22025;-77
2023/02/22 12:38:21;;;;;;;26.40;12.50;;;;;;;7.57;58.07;100623.23;108196;1287;22009;-77
2023/02/22 12:41:32;;;;;;;34.10;13.00;;;;;;;7.53;57.88;100625.23;108679;1280;23720;-77
2023/02/22 12:44:16;;;;;;;34.20;13.90;;;;;;;7.44;57.61;100623.68;109037;1275;23770;-78
2023/02/22 12:46:52;;;;;;;29.80;11.80;;;;;;;7.30;57.65;100621.35;109428;1268;23541;-78
2023/02/22 12:50:28;;;;;;;30.80;13.00;;;;;;;7.25;57.72;100623.19;109917;1267;22198;-78
2023/02/22 12:54:02;;;;;;;24.90;13.20;;;;;;;7.18;58.11;100624.69;108796;1280;22744;-77
2023/02/22 12:57:58;;;;;;;24.50;11.40;;;;;;;7.31;58.36;100626.34;109056;1276;24444;-77
2023/02/22 13:01:01;;;;;;;30.20;12.90;;;;;;;7.48;58.37;100624.80;108909;1276;23735;-78
2023/02/22 13:03:49;;;;;;;31.80;10.90;;;;;;;7.61;57.97;100626.43;109109;1273;23753;-78
2023/02/22 13:07:35;;;;;;;19.70;9.20;;;;;;;7.58;57.41;100628.05;109521;1271;21982;-79
2023/02/22 13:11:00;;;;;;;24.90;10.20;;;;;;;7.49;57.09;100626.70;109721;1257;23166;-78
2023/02/22 13:18:28;;;;;;;23.20;9.60;;;;;;;7.32;57.20;100619.41;109264;1273;21993;-78
2023/02/22 13:25:47;;;;;;;19.20;9.00;;;;;;;7.46;57.22;100619.28;108066;1289;23776;-74
2023/02/22 13:29:12;;;;;;;23.00;10.20;;;;;;;7.44;56.71;100620.90;107947;1290;23748;-77
2023/02/22 13:32:07;;;;;;;19.70;10.00;;;;;;;7.34;56.74;100619.56;108557;1281;22001;-75
2023/02/22 13:38:38;;;;;;;20.60;11.70;;;;;;;7.19;56.63;100623.64;108547;1281;23033;-79
2023/02/22 13:42:02;;;;;;;21.20;10.30;;;;;;;7.11;56.65;100622.08;108492;1283;22096;-78
2023/02/22 13:45:17;;;;;;;26.00;10.40;;;;;;;7.07;56.90;100618.52;108604;1283;23176;-78
2023/02/22 13:48:26;;;;;;;23.40;9.50;;;;;;;7.05;57.00;100624.60;108710;1281;22136;-77
2023/02/22 13:51:46;;;;;;;25.60;10.00;;;;;;;7.05;57.10;100625.82;108614;1281;23068;-79
2023/02/22 13:55:01;;;;;;;23.10;11.50;;;;;;;7.05;57.28;100627.89;108860;1281;22001;-79
2023/02/22 13:57:58;;;;;;;25.60;11.00;;;;;;;7.07;57.17;100628.73;109291;1269;22282;-79
2023/02/22 14:01:06;;;;;;;20.80;10.80;;;;;;;7.01;57.05;100632.98;109790;1262;22090;-79
2023/02/22 14:04:37;;;;;;;28.60;14.50;;;;;;;6.95;57.15;100631.72;110148;1267;23590;-79
2023/02/22 14:07:54;;;;;;;26.40;12.10;;;;;;;6.92;57.17;100631.95;109608;1265;21979;-78
2023/02/22 14:11:09;;;;;;;19.80;11.20;;;;;;;6.92;57.49;100631.43;109221;1275;21949;-79
2023/02/22 14:15:27;;;;;;;;;;;;;;;;;;;;;
2023/02/22 14:19:06;;;;;;;19.80;10.40;;;;;;;6.92;57.35;100640.94;108597;1283;21997;-78
2023/02/22 14:22:05;;;;;;;21.30;9.80;;;;;;;6.86;57.14;100635.52;108753;1276;22060;-78
2023/02/22 14:25:06;;;;;;;17.40;9.70;;;;;;;6.77;57.27;100635.14;108917;1274;22805;-77
2023/02/22 14:28:56;;;;;;;18.80;9.80;;;;;;;6.70;57.22;100639.77;109559;1268;21971;-78
2023/02/22 14:32:30;;;;;;;17.00;9.00;;;;;;;6.62;57.47;100643.02;110343;1261;21982;-79
2023/02/22 14:36:25;;;;;;;20.00;10.70;;;;;;;6.52;57.50;100638.01;109992;1267;21978;-78
2023/02/22 14:39:34;;;;;;;19.20;11.80;;;;;;;6.46;57.73;100640.34;109305;1273;23701;-79
2023/02/22 14:42:37;;;;;;;19.10;12.70;;;;;;;6.43;57.82;100635.19;109491;1272;22002;-79
2023/02/22 14:46:26;;;;;;;17.60;11.90;;;;;;;6.40;57.97;100640.60;108990;1277;22045;-79
2023/02/22 14:49:56;;;;;;;21.10;14.00;;;;;;;6.34;58.04;100641.91;108557;1277;22004;-79
2023/02/22 14:53:03;;;;;;;21.70;12.50;;;;;;;6.28;58.06;100638.38;108989;1271;22277;-79
2023/02/22 14:56:16;;;;;;;23.80;14.40;;;;;;;6.28;58.25;100636.98;109501;1267;22001;-80
2023/02/22 15:00:41;;;;;;;;;;;;;;;;;;;;;
2023/02/22 15:03:49;;;;;;;19.50;10.50;;;;;;;6.24;58.46;100635.67;110392;1262;23621;-80
2023/02/22 15:07:55;;;;;;;;;;;;;;;;;;;;;
2023/02/22 15:14:53;;;;;;;19.70;11.70;;;;;;;5.91;58.30;100627.84;109886;1269;21985;-79
2023/02/22 15:18:28;;;;;;;18.50;10.50;;;;;;;5.75;58.43;100629.95;109899;1265;24505;-79
2023/02/22 15:22:08;;;;;;;20.30;14.40;;;;;;;5.67;58.65;100626.26;109906;1269;25025;-78
2023/02/22 15:25:47;;;;;;;18.80;12.10;;;;;;;5.57;58.81;100624.15;109565;1269;22042;-79
2023/02/22 15:30:05;;;;;;;19.50;9.90;;;;;;;5.45;59.01;100620.15;110163;1268;22014;-78
2023/02/22 15:34:08;;;;;;;22.20;12.30;;;;;;;5.37;59.19;100620.42;109248;1277;23763;-79
2023/02/22 15:37:40;;;;;;;29.20;14.70;;;;;;;5.32;59.55;100621.52;108986;1277;21988;-80
2023/02/22 15:41:17;;;;;;;28.90;17.50;;;;;;;5.28;59.57;100628.98;109199;1277;23820;-80
2023/02/22 15:45:27;;;;;;;26.10;16.00;;;;;;;5.21;59.63;100633.72;109207;1269;22438;-80
2023/02/22 15:49:29;;;;;;;;;;;;;;;;;;;;;
2023/02/22 15:53:29;;;;;;;22.90;14.50;;;;;;;4.99;59.92;100623.27;109206;1276;23708;-79
2023/02/22 16:00:56;;;;;;;;;;;;;;;;;;;;;
2023/02/22 16:04:53;;;;;;;25.20;13.90;;;;;;;4.80;60.50;100624.66;108171;1287;22258;-78
2023/02/22 16:07:51;;;;;;;25.40;15.10;;;;;;;4.72;60.64;100628.54;107753;1292;22010;-78
2023/02/22 16:11:22;;;;;;;;;;;;;;;;;;;;;
2023/02/22 16:14:24;;;;;;;23.20;14.50;;;;;;;4.58;60.86;100636.92;107889;1292;23667;-77
2023/02/22 16:17:24;;;;;;;28.50;16.20;;;;;;;4.50;61.06;100643.71;108395;1286;21972;-76
2023/02/22 16:20:28;;;;;;;28.50;16.10;;;;;;;4.49;61.27;100647.00;108382;1286;23056;-75
2023/02/22 16:31:35;;;;;;;26.90;17.60;;;;;;;4.36;61.37;100660.20;107378;1295;22021;-79
2023/02/22 16:38:52;;;;;;;;;;;;;;;;;;;;;
2023/02/22 16:45:24;;;;;;;29.10;23.80;;;;;;;4.17;62.17;100667.73;107969;1291;22048;-79
2023/02/22 16:49:08;;;;;;;36.00;25.40;;;;;;;4.14;62.54;100672.23;108098;1295;23741;-81
2023/02/22 16:55:57;;;;;;;;;;;;;;;;;;;;;
2023/02/22 17:13:54;;;;;;;;;;;;;;;;;;;;;
2023/02/22 17:17:08;;;;;;;44.90;29.60;;;;;;;5.22;58.98;100668.89;105237;1282;4812063;-81
2023/02/22 17:20:31;;;;;;;45.10;29.20;;;;;;;4.73;60.05;100673.52;108827;1282;22160;-80
2023/02/22 17:24:45;;;;;;;;;;;;;;;;;;;;;
2023/02/22 17:29:15;;;;;;;;;;;;;;;;;;;;;
2023/02/22 17:37:08;;;;;;;;;;;;;;;;;;;;;
2023/02/22 17:40:02;;;;;;;37.60;24.70;;;;;;;3.57;62.75;100684.05;107501;1296;22034;-81
2023/02/22 17:44:16;;;;;;;;;;;;;;;;;;;;;
2023/02/22 17:46:45;;;;;;;30.20;20.10;;;;;;;3.42;62.77;100680.65;107833;1295;22383;-79
2023/02/22 17:50:15;;;;;;;;;;;;;;;;;;;;;
2023/02/22 17:54:15;;;;;;;;;;;;;;;;;;;;;
2023/02/22 17:57:32;;;;;;;36.30;24.00;;;;;;;3.22;63.51;100683.63;108491;1289;22015;-80
2023/02/22 18:01:01;;;;;;;26.80;18.80;;;;;;;3.14;63.50;100691.73;107678;1291;22011;-79
2023/02/22 18:04:25;;;;;;;27.30;17.70;;;;;;;3.03;63.67;100693.13;107465;1298;22009;-79
2023/02/22 18:07:48;;;;;;;31.70;19.80;;;;;;;2.93;63.75;100691.08;107386;1298;22871;-79
2023/02/22 18:11:09;;;;;;;;;;;;;;;;;;;;;
2023/02/22 18:17:49;;;;;;;;;;;;;;;;;;;;;
2023/02/22 18:21:12;;;;;;;;;;;;;;;;;;;;;
2023/02/22 18:24:30;;;;;;;;;;;;;;;;;;;;;
2023/02/22 18:28:18;;;;;;;38.00;21.10;;;;;;;2.63;64.13;100705.87;108091;1293;22549;-79
2023/02/22 18:31:34;;;;;;;;;;;;;;;2.58;64.21;100707.41;107907;1294;23871;-79
2023/02/22 18:34:47;;;;;;;;;;;;;;;;;;;;;
2023/02/22 18:38:52;;;;;;;40.20;22.00;;;;;;;2.46;64.54;100709.81;108103;1289;22103;-79
2023/02/22 18:42:12;;;;;;;;;;;;;;;;;;;;;
2023/02/22 18:46:16;;;;;;;;;;;;;;;;;;;;;
2023/02/22 18:50:02;;;;;;;;;;;;;;;;;;;;;
2023/02/22 18:54:34;;;;;;;;;;;;;;;;;;;;;